createdAt,value
2019-02-15T00:02:21.279Z,1.70
2019-02-15T00:04:50.130Z,1.50
2019-02-15T00:07:19.054Z,1.40
2019-02-15T00:09:47.900Z,1.40
2019-02-15T00:12:16.730Z,1.50
2019-02-15T00:14:49.341Z,1.60
2019-02-15T00:17:36.454Z,1.70
2019-02-15T00:20:09.101Z,1.70
2019-02-15T00:22:37.926Z,1.70
2019-02-15T00:25:06.841Z,1.60
2019-02-15T00:27:36.034Z,1.50
2019-02-15T00:30:07.395Z,1.50
2019-02-15T00:32:36.583Z,1.60
2019-02-15T00:35:05.698Z,1.40
2019-02-15T00:37:34.549Z,1.30
2019-02-15T00:40:03.467Z,1.40
2019-02-15T00:42:32.310Z,1.30
2019-02-15T00:45:01.139Z,1.20
2019-02-15T00:47:37.754Z,1.10
2019-02-15T00:50:25.333Z,1.20
2019-02-15T00:53:13.658Z,1.10
2019-02-15T00:55:54.855Z,1.20
2019-02-15T00:58:43.410Z,1.10
2019-02-15T01:01:43.774Z,1.00
2019-02-15T01:04:18.754Z,0.90
2019-02-15T01:07:10.282Z,1.10
2019-02-15T01:09:54.119Z,1.00
2019-02-15T01:12:57.266Z,1.00
2019-02-15T01:15:26.246Z,1.00
2019-02-15T01:17:55.435Z,1.00
2019-02-15T01:20:24.332Z,0.80
2019-02-15T01:22:53.186Z,0.80
2019-02-15T01:25:22.467Z,0.90
2019-02-15T01:28:25.962Z,0.80
2019-02-15T01:31:13.886Z,0.70
2019-02-15T01:33:50.058Z,0.60
2019-02-15T01:36:27.292Z,0.60
2019-02-15T01:39:10.498Z,0.50
2019-02-15T01:41:46.982Z,0.50
2019-02-15T01:44:27.841Z,0.70
2019-02-15T01:47:03.431Z,0.70
2019-02-15T01:49:32.794Z,0.50
2019-02-15T01:52:01.646Z,0.40
2019-02-15T01:54:30.507Z,0.40
2019-02-15T01:56:59.360Z,0.40
2019-02-15T01:59:28.558Z,0.50
2019-02-15T02:01:57.477Z,0.50
2019-02-15T02:04:26.751Z,0.40
2019-02-15T02:06:56.279Z,0.30
2019-02-15T02:09:25.282Z,0.40
2019-02-15T02:11:54.550Z,0.20
2019-02-15T02:14:23.775Z,0.20
2019-02-15T02:16:52.706Z,0.20
2019-02-15T02:19:21.861Z,0.10
2019-02-15T02:21:50.823Z,0.10
2019-02-15T02:24:19.747Z,0.00
2019-02-15T02:26:48.660Z,0.00
2019-02-15T02:29:17.916Z,0.00
2019-02-15T02:31:46.836Z,0.00
2019-02-15T02:34:15.673Z,0.00
2019-02-15T02:36:55.094Z,0.20
2019-02-15T02:39:24.239Z,0.20
2019-02-15T02:41:53.217Z,0.40
2019-02-15T02:44:22.136Z,0.30
2019-02-15T02:46:51.042Z,0.20
2019-02-15T02:49:20.520Z,0.20
2019-02-15T02:51:49.351Z,0.10
2019-02-15T02:54:18.194Z,0.00
2019-02-15T02:56:47.030Z,-0.10
2019-02-15T02:59:15.873Z,-0.10
2019-02-15T03:01:44.713Z,-0.10
2019-02-15T03:04:14.070Z,0.10
2019-02-15T03:06:42.923Z,0.40
2019-02-15T03:09:11.829Z,0.30
2019-02-15T03:11:40.737Z,0.30
2019-02-15T03:14:11.836Z,0.20
2019-02-15T03:16:40.214Z,0.10
2019-02-15T03:19:09.057Z,0.00
2019-02-15T03:21:38.250Z,0.00
2019-02-15T03:24:07.175Z,-0.10
2019-02-15T03:26:36.073Z,-0.10
2019-02-15T03:29:05.062Z,0.00
2019-02-15T03:31:34.271Z,-0.10
2019-02-15T03:34:03.121Z,0.10
2019-02-15T03:36:46.809Z,0.20
2019-02-15T03:39:22.272Z,0.20
2019-02-15T03:41:51.406Z,0.30
2019-02-15T03:44:22.517Z,0.20
2019-02-15T03:46:50.877Z,0.00
2019-02-15T03:49:19.725Z,0.00
2019-02-15T03:51:49.006Z,0.00
2019-02-15T03:54:17.924Z,0.00
2019-02-15T03:56:46.762Z,0.00
2019-02-15T03:59:15.752Z,0.00
2019-02-15T04:01:44.880Z,-0.20
2019-02-15T04:04:13.802Z,-0.10
2019-02-15T04:06:42.646Z,0.00
2019-02-15T04:09:11.798Z,0.10
2019-02-15T04:11:40.691Z,0.00
2019-02-15T04:14:09.627Z,-0.10
2019-02-15T04:16:38.789Z,-0.10
2019-02-15T04:19:07.707Z,-0.20
2019-02-15T04:21:36.551Z,-0.20
2019-02-15T04:24:05.390Z,-0.10
2019-02-15T04:26:34.235Z,0.00
2019-02-15T04:29:03.457Z,0.10
2019-02-15T04:31:32.593Z,0.30
2019-02-15T04:34:01.510Z,0.30
2019-02-15T04:36:30.337Z,0.30
2019-02-15T04:38:59.254Z,0.40
2019-02-15T04:41:28.478Z,0.40
2019-02-15T04:43:57.618Z,0.40
2019-02-15T04:46:26.782Z,0.30
2019-02-15T04:48:55.618Z,0.30
2019-02-15T04:51:24.463Z,0.20
2019-02-15T04:53:53.641Z,0.20
2019-02-15T04:56:22.481Z,0.20
2019-02-15T04:58:51.927Z,0.30
2019-02-15T05:01:20.776Z,0.50
2019-02-15T05:03:49.691Z,0.40
2019-02-15T05:06:18.531Z,0.50
2019-02-15T05:08:47.370Z,0.50
2019-02-15T05:11:16.308Z,0.40
2019-02-15T05:13:45.786Z,0.40
2019-02-15T05:16:14.646Z,0.10
2019-02-15T05:18:43.476Z,0.10
2019-02-15T05:21:12.929Z,0.30
2019-02-15T05:23:41.914Z,0.20
2019-02-15T05:26:10.834Z,0.20
2019-02-15T05:28:39.730Z,0.20
2019-02-15T05:31:08.847Z,0.10
2019-02-15T05:33:38.370Z,0.20
2019-02-15T05:36:07.489Z,0.20
2019-02-15T05:38:36.955Z,0.20
2019-02-15T05:41:05.821Z,0.30
2019-02-15T05:43:34.938Z,0.20
2019-02-15T05:46:03.864Z,0.10
2019-02-15T05:48:32.686Z,0.20
2019-02-15T05:51:01.534Z,0.10
2019-02-15T05:53:30.361Z,-0.10
2019-02-15T05:55:59.208Z,0.00
2019-02-15T05:58:28.047Z,-0.10
2019-02-15T06:00:56.895Z,0.30
2019-02-15T06:03:25.730Z,0.30
2019-02-15T06:05:54.968Z,0.30
2019-02-15T06:08:23.803Z,0.30
2019-02-15T06:10:52.672Z,0.20
2019-02-15T06:13:21.854Z,0.10
2019-02-15T06:15:51.042Z,0.00
2019-02-15T06:18:19.890Z,-0.10
2019-02-15T06:20:48.734Z,0.10
2019-02-15T06:23:18.102Z,-0.10
2019-02-15T06:25:47.239Z,-0.20
2019-02-15T06:28:16.157Z,-0.20
2019-02-15T06:30:44.998Z,-0.20
2019-02-15T06:33:13.958Z,-0.20
2019-02-15T06:35:43.715Z,-0.20
2019-02-15T06:38:12.562Z,-0.20
2019-02-15T06:40:41.401Z,-0.20
2019-02-15T06:43:10.328Z,-0.10
2019-02-15T06:45:39.165Z,0.00
2019-02-15T06:48:08.426Z,0.00
2019-02-15T06:50:37.849Z,-0.10
2019-02-15T06:53:06.743Z,-0.20
2019-02-15T06:55:36.127Z,-0.30
2019-02-15T06:58:05.363Z,-0.20
2019-02-15T07:00:48.799Z,-0.10
2019-02-15T07:03:36.790Z,-0.20
2019-02-15T07:06:05.621Z,-0.10
2019-02-15T07:08:34.485Z,0.10
2019-02-15T07:11:03.574Z,-0.10
2019-02-15T07:13:32.434Z,-0.20
2019-02-15T07:16:01.720Z,-0.20
2019-02-15T07:18:30.646Z,-0.40
2019-02-15T07:21:02.638Z,-0.40
2019-02-15T07:23:32.157Z,-0.30
2019-02-15T07:26:01.003Z,-0.40
2019-02-15T07:28:29.870Z,-0.40
2019-02-15T07:30:58.705Z,-0.40
2019-02-15T07:33:27.560Z,-0.50
2019-02-15T07:35:56.462Z,-0.50
2019-02-15T07:38:25.316Z,-0.40
2019-02-15T07:40:54.262Z,-0.40
2019-02-15T07:43:23.155Z,-0.20
2019-02-15T07:45:52.590Z,-0.20
2019-02-15T07:48:22.419Z,-0.10
2019-02-15T07:50:51.598Z,0.00
2019-02-15T07:53:20.458Z,0.10
2019-02-15T07:55:49.289Z,0.40
2019-02-15T07:58:18.142Z,0.60
2019-02-15T08:00:47.053Z,0.70
2019-02-15T08:03:16.483Z,0.70
2019-02-15T08:05:45.970Z,0.80
2019-02-15T08:08:15.475Z,0.70
2019-02-15T08:10:44.671Z,0.80
2019-02-15T08:13:13.874Z,0.90
2019-02-15T08:15:51.320Z,1.00
2019-02-15T08:18:13.661Z,1.20
2019-02-15T08:20:42.586Z,1.20
2019-02-15T08:23:11.790Z,1.30
2019-02-15T08:25:40.643Z,1.50
2019-02-15T08:28:09.684Z,1.50
2019-02-15T08:30:38.514Z,1.60
2019-02-15T08:33:07.773Z,1.60
2019-02-15T08:35:37.012Z,1.70
2019-02-15T08:38:05.934Z,1.80
2019-02-15T08:40:34.792Z,2.00
2019-02-15T08:43:03.661Z,2.00
2019-02-15T08:45:32.758Z,2.20
2019-02-15T08:48:02.720Z,2.30
2019-02-15T08:50:32.154Z,2.50
2019-02-15T08:53:01.232Z,2.60
2019-02-15T08:55:30.065Z,2.80
2019-02-15T08:57:59.247Z,2.90
2019-02-15T09:00:28.082Z,3.10
2019-02-15T09:02:57.218Z,3.30
2019-02-15T09:05:26.341Z,3.60
2019-02-15T09:07:55.519Z,3.80
2019-02-15T09:10:24.717Z,4.10
2019-02-15T09:12:53.553Z,4.50
2019-02-15T09:15:22.862Z,5.00
2019-02-15T09:17:52.106Z,5.90
2019-02-15T09:20:21.610Z,6.90
2019-02-15T09:22:50.702Z,8.10
2019-02-15T09:25:19.843Z,9.00
2019-02-15T09:28:11.117Z,9.80
2019-02-15T09:30:40.314Z,10.60
2019-02-15T09:33:09.549Z,11.10
2019-02-15T09:35:38.401Z,11.40
2019-02-15T09:38:08.019Z,11.90
2019-02-15T09:40:36.981Z,12.00
2019-02-15T09:43:05.829Z,12.30
2019-02-15T09:45:34.746Z,12.80
2019-02-15T09:48:03.994Z,13.40
2019-02-15T09:50:32.848Z,13.80
2019-02-15T09:53:01.763Z,13.80
2019-02-15T09:55:30.910Z,14.70
2019-02-15T09:57:59.862Z,14.70
2019-02-15T10:00:28.790Z,14.90
2019-02-15T10:02:57.902Z,15.00
2019-02-15T10:05:27.034Z,15.10
2019-02-15T10:07:55.895Z,15.20
2019-02-15T10:10:25.183Z,15.50
2019-02-15T10:12:54.030Z,15.80
2019-02-15T10:15:23.224Z,15.70
2019-02-15T10:17:52.144Z,15.90
2019-02-15T10:20:21.081Z,16.60
2019-02-15T10:22:50.204Z,17.00
2019-02-15T10:25:19.430Z,16.90
2019-02-15T10:27:48.621Z,17.00
2019-02-15T10:30:17.550Z,16.60
2019-02-15T10:32:46.395Z,16.70
2019-02-15T10:35:15.525Z,17.00
2019-02-15T10:37:44.679Z,16.90
2019-02-15T10:40:13.678Z,16.90
2019-02-15T10:42:42.667Z,16.60
2019-02-15T10:45:12.585Z,16.70
2019-02-15T10:47:41.489Z,16.70
2019-02-15T10:50:10.569Z,16.70
2019-02-15T10:52:40.274Z,16.60
2019-02-15T10:55:09.314Z,16.80
2019-02-15T10:57:38.397Z,17.00
2019-02-15T11:00:10.754Z,16.70
2019-02-15T11:02:39.962Z,17.20
2019-02-15T11:05:09.746Z,17.10
2019-02-15T11:07:39.149Z,16.40
2019-02-15T11:10:08.774Z,16.80
2019-02-15T11:12:38.062Z,16.90
2019-02-15T11:15:08.121Z,16.80
2019-02-15T11:17:37.382Z,16.50
2019-02-15T11:20:07.378Z,16.30
2019-02-15T11:22:36.593Z,16.70
2019-02-15T11:25:07.019Z,17.00
2019-02-15T11:27:36.221Z,17.50
2019-02-15T11:30:08.257Z,17.70
2019-02-15T11:32:37.178Z,18.00
2019-02-15T11:35:07.171Z,17.90
2019-02-15T11:37:36.104Z,18.00
2019-02-15T11:40:05.860Z,17.80
2019-02-15T11:42:34.715Z,17.50
2019-02-15T11:45:03.839Z,17.50
2019-02-15T11:47:33.394Z,17.80
2019-02-15T11:50:02.693Z,17.70
2019-02-15T11:52:31.898Z,17.60
2019-02-15T11:55:01.095Z,17.40
2019-02-15T11:57:30.089Z,17.20
2019-02-15T11:59:59.005Z,16.50
2019-02-15T12:02:27.930Z,16.40
2019-02-15T12:04:56.795Z,16.30
2019-02-15T12:07:25.990Z,16.10
2019-02-15T12:09:55.210Z,16.10
2019-02-15T12:12:24.562Z,16.10
2019-02-15T12:14:53.882Z,16.10
2019-02-15T12:17:23.802Z,16.00
2019-02-15T12:19:52.798Z,16.00
2019-02-15T12:22:22.470Z,15.90
2019-02-15T12:24:51.674Z,15.80
2019-02-15T12:27:20.867Z,15.70
2019-02-15T12:29:50.310Z,15.70
2019-02-15T12:32:19.476Z,15.50
2019-02-15T12:34:48.318Z,15.30
2019-02-15T12:37:17.504Z,15.00
2019-02-15T12:39:46.727Z,15.00
2019-02-15T12:42:15.856Z,15.00
2019-02-15T12:44:44.770Z,14.90
2019-02-15T12:47:15.310Z,14.90
2019-02-15T12:49:44.610Z,14.60
2019-02-15T12:52:13.544Z,14.40
2019-02-15T12:54:42.975Z,14.20
2019-02-15T12:57:11.821Z,14.20
2019-02-15T12:59:41.304Z,14.10
2019-02-15T13:02:10.226Z,14.10
2019-02-15T13:04:39.456Z,13.90
2019-02-15T13:07:08.318Z,13.80
2019-02-15T13:09:37.466Z,13.80
2019-02-15T13:12:06.671Z,13.70
2019-02-15T13:14:35.657Z,13.60
2019-02-15T13:17:04.530Z,13.50
2019-02-15T13:19:34.135Z,13.50
2019-02-15T13:22:03.086Z,13.50
2019-02-15T13:24:32.031Z,13.30
2019-02-15T13:27:00.958Z,13.10
2019-02-15T13:29:30.106Z,13.00
2019-02-15T13:31:59.413Z,12.80
2019-02-15T13:34:28.253Z,12.90
2019-02-15T13:36:57.489Z,12.90
2019-02-15T13:39:26.692Z,12.80
2019-02-15T13:41:55.625Z,12.70
2019-02-15T13:44:24.466Z,12.70
2019-02-15T13:46:53.674Z,12.90
2019-02-15T13:49:23.230Z,12.90
2019-02-15T13:51:52.071Z,12.90
2019-02-15T13:54:21.579Z,12.80
2019-02-15T13:56:50.502Z,12.70
2019-02-15T13:59:19.831Z,12.60
2019-02-15T14:01:48.994Z,12.50
2019-02-15T14:04:17.874Z,12.50
2019-02-15T14:06:54.069Z,12.60
2019-02-15T14:09:23.220Z,12.50
2019-02-15T14:11:52.594Z,12.50
2019-02-15T14:14:21.864Z,12.50
2019-02-15T14:16:50.722Z,12.40
2019-02-15T14:19:19.649Z,12.50
2019-02-15T14:21:48.550Z,12.40
2019-02-15T14:24:17.799Z,12.40
2019-02-15T14:26:46.657Z,12.40
2019-02-15T14:29:15.509Z,12.30
2019-02-15T14:31:44.346Z,12.40
2019-02-15T14:34:13.202Z,12.40
2019-02-15T14:36:42.376Z,12.50
2019-02-15T14:39:12.356Z,12.40
2019-02-15T14:41:41.682Z,12.40
2019-02-15T14:44:10.586Z,12.40
2019-02-15T14:46:39.921Z,12.40
2019-02-15T14:49:08.882Z,12.40
2019-02-15T14:51:38.164Z,12.30
2019-02-15T14:54:07.094Z,12.30
2019-02-15T14:56:36.351Z,12.40
2019-02-15T14:59:05.210Z,12.40
2019-02-15T15:01:34.157Z,12.40
2019-02-15T15:04:03.359Z,12.40
2019-02-15T15:06:32.549Z,12.40
2019-02-15T15:09:01.437Z,12.40
2019-02-15T15:11:30.662Z,12.40
2019-02-15T15:13:59.629Z,12.30
2019-02-15T15:16:28.828Z,12.30
2019-02-15T15:18:57.746Z,12.30
2019-02-15T15:21:26.902Z,12.30
2019-02-15T15:23:56.110Z,12.30
2019-02-15T15:26:24.945Z,12.20
2019-02-15T15:28:53.870Z,12.20
2019-02-15T15:31:22.782Z,12.20
2019-02-15T15:33:52.170Z,12.10
2019-02-15T15:36:21.018Z,12.00
2019-02-15T15:38:50.266Z,12.00
2019-02-15T15:41:20.137Z,11.90
2019-02-15T15:43:49.129Z,11.90
2019-02-15T15:46:18.126Z,12.00
2019-02-15T15:48:47.465Z,12.00
2019-02-15T15:51:16.661Z,11.90
2019-02-15T15:53:45.964Z,11.80
2019-02-15T15:56:14.818Z,11.70
2019-02-15T15:58:44.258Z,11.70
2019-02-15T16:01:13.502Z,11.50
2019-02-15T16:03:43.064Z,11.50
2019-02-15T16:06:11.920Z,11.30
2019-02-15T16:08:41.254Z,11.20
2019-02-15T16:11:10.453Z,11.20
2019-02-15T16:13:39.871Z,11.00
2019-02-15T16:16:08.904Z,10.90
2019-02-15T16:18:41.429Z,10.90
2019-02-15T16:21:10.424Z,10.80
2019-02-15T16:23:41.516Z,10.60
2019-02-15T16:26:19.993Z,10.50
2019-02-15T16:29:15.086Z,10.40
2019-02-15T16:31:44.330Z,10.20
2019-02-15T16:34:13.517Z,10.10
2019-02-15T16:36:42.383Z,10.00
2019-02-15T16:39:24.551Z,10.00
2019-02-15T16:41:57.510Z,9.90
2019-02-15T16:44:30.268Z,9.70
2019-02-15T16:47:09.952Z,9.50
2019-02-15T16:56:04.338Z,9.40
2019-02-15T16:58:35.086Z,9.20
2019-02-15T17:01:13.631Z,8.90
2019-02-15T17:04:06.753Z,8.70
2019-02-15T17:06:44.696Z,8.60
2019-02-15T17:09:22.792Z,8.40
2019-02-15T17:11:52.709Z,8.40
2019-02-15T17:14:22.674Z,8.30
2019-02-15T17:16:52.139Z,8.20
2019-02-15T17:19:22.691Z,8.20
2019-02-15T17:21:55.186Z,8.20
2019-02-15T17:24:25.833Z,8.10
2019-02-15T17:29:45.262Z,7.80
2019-02-15T17:32:15.609Z,7.60
2019-02-15T17:34:48.451Z,7.60
2019-02-15T17:37:22.410Z,7.50
2019-02-15T17:39:53.737Z,7.40
2019-02-15T17:42:24.008Z,7.30
2019-02-15T17:44:53.806Z,7.30
2019-02-15T17:50:42.536Z,7.30
2019-02-15T17:53:11.729Z,7.20
2019-02-15T17:55:40.985Z,7.00
2019-02-15T17:58:09.910Z,6.90
2019-02-15T18:00:39.172Z,6.80
2019-02-15T18:03:08.395Z,6.70
2019-02-15T18:05:37.225Z,6.70
2019-02-15T18:08:06.213Z,6.60
2019-02-15T18:10:35.381Z,6.60
2019-02-15T18:13:04.646Z,6.50
2019-02-15T18:15:33.682Z,6.50
2019-02-15T18:18:02.545Z,6.40
2019-02-15T18:20:31.798Z,6.30
2019-02-15T18:23:01.046Z,6.30
2019-02-15T18:25:30.640Z,6.30
2019-02-15T18:27:59.569Z,6.30
2019-02-15T18:30:29.145Z,6.20
2019-02-15T18:32:58.444Z,6.30
2019-02-15T18:35:27.274Z,6.40
2019-02-15T18:37:56.426Z,6.30
2019-02-15T18:40:25.558Z,6.30
2019-02-15T18:42:54.822Z,6.10
2019-02-15T18:45:23.657Z,6.00
2019-02-15T18:47:52.511Z,5.90
2019-02-15T18:50:21.703Z,5.80
2019-02-15T18:52:50.902Z,5.90
2019-02-15T18:55:19.821Z,5.90
2019-02-15T18:57:48.745Z,6.00
2019-02-15T19:00:18.290Z,6.00
2019-02-15T19:02:47.205Z,5.80
2019-02-15T19:05:16.130Z,5.70
2019-02-15T19:07:45.269Z,5.70
2019-02-15T19:10:15.890Z,5.70
2019-02-15T19:12:45.218Z,5.60
2019-02-15T19:15:15.300Z,5.50
2019-02-15T19:17:44.565Z,5.20
2019-02-15T19:20:13.881Z,5.00
2019-02-15T19:22:42.734Z,5.00
2019-02-15T19:25:12.415Z,5.10
2019-02-15T19:27:41.347Z,5.20
2019-02-15T19:30:13.175Z,5.00
2019-02-15T19:32:42.125Z,4.90
2019-02-15T19:35:11.402Z,4.70
2019-02-15T19:37:40.314Z,4.80
2019-02-15T19:40:10.498Z,4.70
2019-02-15T19:42:40.499Z,4.80
2019-02-15T19:45:10.390Z,4.80
2019-02-15T19:47:39.610Z,4.80
2019-02-15T19:50:11.290Z,4.70
2019-02-15T19:52:40.809Z,4.50
2019-02-15T19:55:10.256Z,4.30
2019-02-15T19:57:39.811Z,4.30
2019-02-15T20:00:11.835Z,4.20
2019-02-15T20:02:41.179Z,4.20
2019-02-15T20:05:10.302Z,4.10
2019-02-15T20:07:39.445Z,4.00
2019-02-15T20:10:11.078Z,4.20
2019-02-15T20:12:39.919Z,4.00
2019-02-15T20:15:10.495Z,4.00
2019-02-15T20:17:39.402Z,3.90
2019-02-15T20:20:09.914Z,3.80
2019-02-15T20:22:38.817Z,3.70
2019-02-15T20:25:08.625Z,3.60
2019-02-15T20:27:37.546Z,3.80
2019-02-15T20:30:09.371Z,3.90
2019-02-15T20:32:38.492Z,3.90
2019-02-15T20:35:08.850Z,3.70
2019-02-15T20:37:38.223Z,3.70
2019-02-15T20:40:08.413Z,3.60
2019-02-15T20:42:37.408Z,3.60
2019-02-15T20:45:08.482Z,3.60
2019-02-15T20:47:37.682Z,3.70
2019-02-15T20:50:07.466Z,3.80
2019-02-15T20:52:36.891Z,3.80
2019-02-15T20:55:07.092Z,3.70
2019-02-15T20:57:36.216Z,3.70
2019-02-15T21:00:06.613Z,3.60
2019-02-15T21:02:35.450Z,3.40
2019-02-15T21:05:04.826Z,3.40
2019-02-15T21:07:33.687Z,3.30
2019-02-15T21:10:02.542Z,3.30
2019-02-15T21:12:32.102Z,3.20
2019-02-15T21:15:00.963Z,3.20
2019-02-15T21:17:29.810Z,3.10
2019-02-15T21:20:06.978Z,3.10
2019-02-15T21:22:29.240Z,3.10
2019-02-15T21:24:58.090Z,3.20
2019-02-15T21:27:27.006Z,3.10
2019-02-15T21:29:55.947Z,3.10
2019-02-15T21:32:24.789Z,3.10
2019-02-15T21:34:53.978Z,3.30
2019-02-15T21:37:22.895Z,3.20
2019-02-15T21:39:51.734Z,3.30
2019-02-15T21:42:20.583Z,3.20
2019-02-15T21:44:49.422Z,3.20
2019-02-15T21:47:18.540Z,3.20
2019-02-15T21:49:47.450Z,3.10
2019-02-15T21:52:16.374Z,3.30
2019-02-15T21:54:45.641Z,3.30
2019-02-15T21:57:14.814Z,3.40
2019-02-15T21:59:44.030Z,3.40
2019-02-15T22:02:13.210Z,3.20
2019-02-15T22:04:42.122Z,3.20
2019-02-15T22:07:10.985Z,3.40
2019-02-15T22:09:40.419Z,3.30
2019-02-15T22:12:09.341Z,3.10
2019-02-15T22:14:38.263Z,2.90
2019-02-15T22:17:07.378Z,2.90
2019-02-15T22:19:36.213Z,2.90
2019-02-15T22:22:05.414Z,3.00
2019-02-15T22:24:34.242Z,3.10
2019-02-15T22:27:03.359Z,2.90
2019-02-15T22:29:32.552Z,2.80
2019-02-15T22:32:01.686Z,2.70
2019-02-15T22:34:30.518Z,2.60
2019-02-15T22:36:59.369Z,2.60
2019-02-15T22:39:28.202Z,2.50
2019-02-15T22:41:57.365Z,2.50
2019-02-15T22:44:26.506Z,2.50
2019-02-15T22:46:55.815Z,2.40
2019-02-15T22:49:24.938Z,2.60
2019-02-15T22:51:53.794Z,2.50
2019-02-15T22:54:22.633Z,2.50
2019-02-15T22:56:52.401Z,2.40
2019-02-15T22:59:21.600Z,2.40
2019-02-15T23:01:50.599Z,2.60
2019-02-15T23:04:19.594Z,2.60
2019-02-15T23:06:48.963Z,2.60
2019-02-15T23:09:25.937Z,2.50
2019-02-15T23:11:55.011Z,2.70
2019-02-15T23:14:23.842Z,2.60
2019-02-15T23:16:52.777Z,2.50
2019-02-15T23:19:22.051Z,2.40
2019-02-15T23:21:50.903Z,2.40
2019-02-15T23:24:20.034Z,2.30
2019-02-15T23:26:49.189Z,2.30
2019-02-15T23:29:18.030Z,2.20
2019-02-15T23:31:47.050Z,2.20
2019-02-15T23:34:16.792Z,2.20
2019-02-15T23:36:45.647Z,2.20
2019-02-15T23:39:14.814Z,2.30
2019-02-15T23:41:43.648Z,2.30
2019-02-15T23:44:12.555Z,2.50
2019-02-15T23:46:42.102Z,2.50
2019-02-15T23:49:11.302Z,2.70
2019-02-15T23:51:40.423Z,2.50
2019-02-15T23:54:09.594Z,2.40
2019-02-15T23:56:39.180Z,2.30
2019-02-15T23:59:08.070Z,2.20
